createdAt,value
2018-12-22T00:01:54.373Z,6.73
2018-12-22T00:04:22.260Z,4.43
2018-12-22T00:06:49.842Z,5.67
2018-12-22T00:09:17.460Z,6.10
2018-12-22T00:11:45.235Z,5.80
2018-12-22T00:14:13.251Z,6.97
2018-12-22T00:16:40.815Z,6.80
2018-12-22T00:19:08.372Z,6.07
2018-12-22T00:21:36.297Z,5.40
2018-12-22T00:28:59.838Z,4.90
2018-12-22T00:31:27.734Z,5.87
2018-12-22T00:33:55.631Z,5.33
2018-12-22T00:36:23.246Z,5.50
2018-12-22T00:38:50.866Z,4.23
2018-12-22T00:41:18.811Z,5.27
2018-12-22T00:43:46.766Z,4.23
2018-12-22T00:46:14.365Z,5.67
2018-12-22T00:48:41.933Z,4.97
2018-12-22T00:51:09.863Z,5.00
2018-12-22T00:53:37.785Z,5.00
2018-12-22T00:56:05.385Z,5.47
2018-12-22T00:58:33.002Z,4.37
2018-12-22T01:01:18.013Z,6.43
2018-12-22T01:03:45.928Z,5.97
2018-12-22T01:06:13.863Z,5.83
2018-12-22T01:08:41.500Z,4.50
2018-12-22T01:11:09.086Z,4.67
2018-12-22T01:13:49.542Z,5.23
2018-12-22T01:16:17.084Z,4.33
2018-12-22T01:18:44.997Z,4.77
2018-12-22T01:21:20.594Z,5.47
2018-12-22T01:23:55.347Z,5.07
2018-12-22T01:26:23.289Z,4.70
2018-12-22T01:28:58.382Z,4.17
2018-12-22T01:31:34.094Z,5.00
2018-12-22T01:34:18.509Z,4.20
2018-12-22T01:36:54.978Z,3.83
2018-12-22T01:39:22.557Z,4.40
2018-12-22T01:41:59.554Z,4.30
2018-12-22T01:44:27.209Z,3.93
2018-12-22T01:46:54.781Z,3.97
2018-12-22T01:49:30.539Z,4.87
2018-12-22T01:51:58.219Z,3.83
2018-12-22T01:54:26.245Z,4.20
2018-12-22T01:56:54.119Z,3.57
2018-12-22T01:59:21.720Z,4.40
2018-12-22T02:01:49.466Z,3.17
2018-12-22T02:04:17.445Z,4.13
2018-12-22T02:06:45.054Z,3.83
2018-12-22T02:09:12.719Z,3.73
2018-12-22T02:11:40.417Z,4.03
2018-12-22T02:14:08.338Z,3.70
2018-12-22T02:16:36.013Z,2.50
2018-12-22T02:24:00.345Z,2.67
2018-12-22T02:26:28.326Z,2.00
2018-12-22T02:28:56.805Z,2.80
2018-12-22T02:31:24.871Z,2.87
2018-12-22T02:33:52.611Z,2.80
2018-12-22T02:36:20.589Z,3.20
2018-12-22T02:38:48.527Z,3.50
2018-12-22T02:41:16.118Z,3.37
2018-12-22T02:43:43.751Z,3.47
2018-12-22T02:46:11.565Z,3.70
2018-12-22T02:48:39.225Z,4.40
2018-12-22T02:51:06.811Z,4.33
2018-12-22T02:53:34.794Z,5.17
2018-12-22T02:56:02.734Z,4.63
2018-12-22T02:58:30.347Z,4.70
2018-12-22T03:00:58.162Z,6.80
2018-12-22T03:03:26.113Z,4.57
2018-12-22T03:05:53.784Z,5.97
2018-12-22T03:08:21.369Z,6.00
2018-12-22T03:10:49.301Z,4.37
2018-12-22T03:13:16.880Z,3.83
2018-12-22T03:15:44.507Z,3.80
2018-12-22T03:18:12.442Z,3.87
2018-12-22T03:20:40.498Z,2.93
2018-12-22T03:23:08.071Z,2.17
2018-12-22T03:25:35.769Z,3.20
2018-12-22T03:28:03.669Z,3.20
2018-12-22T03:30:31.256Z,3.70
2018-12-22T03:32:58.927Z,2.50
2018-12-22T03:35:27.120Z,3.10
2018-12-22T03:37:55.083Z,2.70
2018-12-22T03:40:22.677Z,2.80
2018-12-22T03:42:50.287Z,4.03
2018-12-22T03:45:18.159Z,3.03
2018-12-22T03:47:45.731Z,3.10
2018-12-22T03:50:13.435Z,3.10
2018-12-22T03:52:41.188Z,3.33
2018-12-22T03:55:09.045Z,2.17
2018-12-22T03:57:36.621Z,2.67
2018-12-22T04:00:04.234Z,3.03
2018-12-22T04:02:32.226Z,2.80
2018-12-22T04:04:59.875Z,3.10
2018-12-22T04:07:27.482Z,3.10
2018-12-22T04:09:55.437Z,3.00
2018-12-22T04:12:23.335Z,3.43
2018-12-22T04:14:50.908Z,1.80
2018-12-22T04:17:18.484Z,1.80
2018-12-22T04:20:08.638Z,2.00
2018-12-22T04:22:36.489Z,2.03
2018-12-22T04:25:11.849Z,1.97
2018-12-22T04:27:41.545Z,1.93
2018-12-22T04:30:09.278Z,1.97
2018-12-22T04:32:36.875Z,2.57
2018-12-22T04:35:07.834Z,2.40
2018-12-22T04:37:35.546Z,2.60
2018-12-22T04:40:03.680Z,2.13
2018-12-22T04:42:31.715Z,1.90
2018-12-22T04:44:59.314Z,1.60
2018-12-22T04:47:41.060Z,1.60
2018-12-22T04:50:16.350Z,1.80
2018-12-22T04:53:22.461Z,2.80
2018-12-22T04:55:50.438Z,2.37
2018-12-22T04:58:18.023Z,2.60
2018-12-22T05:00:45.823Z,2.23
2018-12-22T05:03:13.513Z,1.40
2018-12-22T05:05:41.132Z,2.10
2018-12-22T05:08:08.705Z,1.40
2018-12-22T05:10:36.765Z,1.50
2018-12-22T05:13:04.842Z,1.63
2018-12-22T05:15:32.723Z,1.50
2018-12-22T05:18:00.417Z,1.40
2018-12-22T05:20:28.392Z,1.30
2018-12-22T05:22:56.091Z,1.83
2018-12-22T05:25:23.758Z,1.37
2018-12-22T05:27:51.719Z,1.50
2018-12-22T05:30:19.646Z,1.80
2018-12-22T05:32:47.210Z,1.70
2018-12-22T05:35:14.800Z,1.70
2018-12-22T05:37:42.706Z,1.73
2018-12-22T05:40:10.258Z,1.77
2018-12-22T05:42:37.835Z,1.87
2018-12-22T05:45:05.839Z,1.57
2018-12-22T05:47:33.415Z,2.00
2018-12-22T05:50:00.982Z,1.40
2018-12-22T05:52:28.953Z,2.60
2018-12-22T05:54:56.868Z,2.53
2018-12-22T05:57:24.574Z,1.90
2018-12-22T06:00:00.174Z,2.03
2018-12-22T06:02:21.908Z,1.90
2018-12-22T06:04:49.974Z,1.73
2018-12-22T06:07:17.813Z,1.67
2018-12-22T06:09:45.386Z,2.37
2018-12-22T06:12:13.238Z,2.13
2018-12-22T06:14:41.073Z,2.70
2018-12-22T06:17:08.731Z,2.33
2018-12-22T06:19:36.342Z,1.63
2018-12-22T06:22:04.234Z,2.23
2018-12-22T06:24:31.790Z,2.33
2018-12-22T06:26:59.411Z,2.17
2018-12-22T06:29:27.169Z,2.77
2018-12-22T06:31:54.936Z,2.40
2018-12-22T06:34:22.626Z,1.83
2018-12-22T06:36:50.671Z,1.67
2018-12-22T06:39:18.677Z,2.17
2018-12-22T06:41:46.227Z,2.10
2018-12-22T06:44:13.901Z,1.50
2018-12-22T06:46:41.801Z,2.70
2018-12-22T06:49:09.461Z,1.87
2018-12-22T06:51:37.507Z,3.07
2018-12-22T06:54:05.386Z,2.33
2018-12-22T06:56:33.354Z,2.20
2018-12-22T06:59:01.000Z,2.43
2018-12-22T07:01:28.545Z,2.17
2018-12-22T07:03:56.234Z,2.23
2018-12-22T07:06:23.814Z,2.00
2018-12-22T07:08:51.459Z,2.10
2018-12-22T07:11:19.477Z,2.00
2018-12-22T07:13:47.062Z,2.27
2018-12-22T07:16:14.642Z,2.27
2018-12-22T07:18:42.509Z,1.87
2018-12-22T07:21:10.709Z,1.53
2018-12-22T07:23:38.310Z,2.43
2018-12-22T07:26:05.997Z,2.27
2018-12-22T07:28:33.907Z,2.03
2018-12-22T07:31:01.514Z,2.20
2018-12-22T07:33:29.122Z,2.33
2018-12-22T07:35:57.148Z,1.80
2018-12-22T07:38:24.729Z,1.90
2018-12-22T07:40:52.357Z,2.30
2018-12-22T07:43:20.660Z,3.03
2018-12-22T07:45:48.634Z,1.73
2018-12-22T07:48:16.287Z,2.00
2018-12-22T07:50:43.867Z,1.90
2018-12-22T07:53:11.663Z,2.00
2018-12-22T07:55:39.215Z,2.57
2018-12-22T07:58:08.070Z,2.17
2018-12-22T08:00:36.415Z,2.50
2018-12-22T08:03:04.352Z,2.10
2018-12-22T08:05:38.629Z,2.97
2018-12-22T08:08:02.039Z,2.63
2018-12-22T08:10:29.745Z,2.33
2018-12-22T08:12:57.678Z,2.33
2018-12-22T08:15:25.533Z,2.83
2018-12-22T08:17:53.147Z,2.33
2018-12-22T08:20:20.743Z,2.00
2018-12-22T08:22:48.704Z,2.47
2018-12-22T08:25:16.299Z,2.57
2018-12-22T08:27:43.894Z,2.00
2018-12-22T11:01:00.408Z,2.03
2018-12-22T11:03:28.370Z,2.60
2018-12-22T11:05:55.990Z,2.43
2018-12-22T11:08:23.619Z,2.07
2018-12-22T11:10:51.647Z,2.20
2018-12-22T11:13:19.243Z,2.00
2018-12-22T11:15:47.004Z,1.87
2018-12-22T11:18:15.099Z,1.70
2018-12-22T11:20:43.079Z,2.13
2018-12-22T11:23:10.690Z,1.83
2018-12-22T11:25:40.199Z,1.90
2018-12-22T11:28:08.154Z,2.10
2018-12-22T11:30:38.204Z,2.10
2018-12-22T11:33:06.105Z,2.33
2018-12-22T11:35:33.895Z,1.90
2018-12-22T11:38:01.501Z,1.83
2018-12-22T11:40:29.386Z,2.00
2018-12-22T11:42:57.042Z,2.13
2018-12-22T11:45:24.623Z,3.00
2018-12-22T11:48:16.062Z,2.23
2018-12-22T11:50:51.444Z,2.07
2018-12-22T11:53:19.286Z,2.50
2018-12-22T11:55:47.458Z,2.20
2018-12-22T11:58:15.225Z,2.00
2018-12-22T12:00:42.812Z,2.17
2018-12-22T12:03:10.679Z,2.30
2018-12-22T12:05:38.857Z,1.97
2018-12-22T12:08:06.471Z,3.00
2018-12-22T12:10:34.510Z,2.87
2018-12-22T12:13:02.469Z,2.33
2018-12-22T12:15:37.153Z,1.97
2018-12-22T12:18:18.956Z,2.93
2018-12-22T12:20:46.887Z,2.23
2018-12-22T12:23:14.513Z,2.87
2018-12-22T12:25:42.093Z,2.23
2018-12-22T12:28:09.746Z,3.07
2018-12-22T12:30:37.346Z,1.97
2018-12-22T12:33:04.942Z,2.53
2018-12-22T12:35:32.786Z,2.97
2018-12-22T12:38:00.612Z,2.97
2018-12-22T12:40:28.177Z,2.40
2018-12-22T12:42:55.742Z,1.53
2018-12-22T12:45:23.483Z,2.33
2018-12-22T12:47:51.041Z,2.07
2018-12-22T12:50:20.511Z,2.00
2018-12-22T12:52:48.143Z,2.30
2018-12-22T12:55:15.873Z,1.93
2018-12-22T12:57:43.543Z,2.20
2018-12-22T13:00:13.107Z,3.73
2018-12-22T13:02:40.674Z,2.57
2018-12-22T13:05:09.094Z,2.67
2018-12-22T13:07:36.700Z,3.47
2018-12-22T13:10:06.190Z,2.73
2018-12-22T13:12:47.355Z,2.77
2018-12-22T13:15:14.952Z,2.53
2018-12-22T13:17:42.518Z,1.77
2018-12-22T13:20:10.660Z,2.77
2018-12-22T13:22:38.252Z,2.83
2018-12-22T13:25:05.899Z,2.30
2018-12-22T13:27:33.896Z,2.40
2018-12-22T13:30:01.767Z,3.70
2018-12-22T13:32:29.442Z,3.27
2018-12-22T13:34:57.112Z,4.07
2018-12-22T13:37:24.823Z,2.37
2018-12-22T13:39:52.771Z,3.80
2018-12-22T13:42:20.335Z,2.47
2018-12-22T13:44:48.124Z,2.10
2018-12-22T13:47:15.711Z,2.87
2018-12-22T13:49:43.498Z,2.20
2018-12-22T13:52:11.698Z,2.80
2018-12-22T13:54:39.437Z,2.27
2018-12-22T13:57:07.027Z,2.90
2018-12-22T13:59:35.026Z,2.47
2018-12-22T14:02:04.899Z,3.07
2018-12-22T14:04:34.159Z,2.40
2018-12-22T14:07:02.822Z,2.53
2018-12-22T14:09:30.715Z,2.23
2018-12-22T14:11:58.950Z,2.47
2018-12-22T14:14:30.948Z,2.53
2018-12-22T14:17:06.997Z,3.13
2018-12-22T14:19:35.391Z,3.00
2018-12-22T14:22:03.691Z,2.87
2018-12-22T14:24:34.546Z,3.07
2018-12-22T14:27:02.449Z,2.77
2018-12-22T14:29:30.018Z,2.70
2018-12-22T14:31:58.036Z,2.63
2018-12-22T14:34:29.206Z,3.30
2018-12-22T14:36:57.130Z,2.60
2018-12-22T14:39:24.932Z,3.63
2018-12-22T14:41:52.654Z,2.80
2018-12-22T14:44:20.661Z,3.07
2018-12-22T14:46:48.482Z,2.57
2018-12-22T14:49:16.064Z,2.80
2018-12-22T14:51:43.622Z,2.53
2018-12-22T14:54:11.518Z,2.70
2018-12-22T14:56:41.965Z,2.80
2018-12-22T14:59:11.494Z,3.30
2018-12-22T15:01:39.429Z,4.70
2018-12-22T15:04:07.042Z,2.53
2018-12-22T15:06:34.702Z,4.00
2018-12-22T15:09:13.074Z,3.37
2018-12-22T15:11:34.059Z,2.83
2018-12-22T15:14:01.953Z,4.23
2018-12-22T15:16:29.749Z,2.87
2018-12-22T15:18:57.483Z,3.20
2018-12-22T15:21:25.425Z,3.27
2018-12-22T15:23:53.118Z,2.90
2018-12-22T15:26:20.730Z,5.03
2018-12-22T15:28:48.304Z,2.53
2018-12-22T15:31:16.206Z,2.67
2018-12-22T15:33:43.778Z,5.27
2018-12-22T15:36:11.865Z,2.97
2018-12-22T15:38:40.010Z,3.23
2018-12-22T15:41:08.061Z,2.67
2018-12-22T15:43:36.005Z,3.80
2018-12-22T15:46:03.821Z,3.43
2018-12-22T15:48:31.587Z,3.30
2018-12-22T15:51:06.658Z,3.00
2018-12-22T15:53:42.126Z,2.70
2018-12-22T15:56:09.982Z,4.27
2018-12-22T15:58:37.924Z,3.03
2018-12-22T16:01:05.566Z,2.80
2018-12-22T16:03:33.212Z,2.90
2018-12-22T16:06:01.367Z,3.20
2018-12-22T16:08:28.969Z,3.33
2018-12-22T16:10:56.562Z,2.73
2018-12-22T16:13:24.578Z,2.37
2018-12-22T16:15:52.552Z,2.70
2018-12-22T16:18:20.326Z,3.33
2018-12-22T16:20:47.961Z,2.80
2018-12-22T16:23:15.644Z,2.53
2018-12-22T16:25:43.218Z,3.00
2018-12-22T16:28:21.771Z,2.90
2018-12-22T16:30:55.554Z,2.93
2018-12-22T16:33:23.503Z,3.30
2018-12-22T16:35:51.107Z,2.67
2018-12-22T16:38:18.834Z,3.13
2018-12-22T16:40:46.846Z,2.30
2018-12-22T16:43:16.003Z,2.60
2018-12-22T16:45:46.867Z,2.77
2018-12-22T16:48:14.929Z,2.83
2018-12-22T16:50:44.210Z,2.43
2018-12-22T16:53:12.172Z,2.17
2018-12-22T16:55:39.742Z,2.87
2018-12-22T16:58:12.065Z,2.70
2018-12-22T17:00:51.100Z,2.30
2018-12-22T17:03:18.776Z,2.83
2018-12-22T17:05:47.435Z,3.00
2018-12-22T17:08:15.150Z,2.87
2018-12-22T17:10:45.186Z,2.60
2018-12-22T17:13:15.632Z,2.83
2018-12-22T17:15:51.475Z,2.50
2018-12-22T17:18:19.202Z,2.97
2018-12-22T17:20:49.371Z,2.53
2018-12-22T17:23:34.809Z,2.60
2018-12-22T17:26:04.915Z,3.00
2018-12-22T17:28:32.473Z,2.63
2018-12-22T17:31:00.445Z,2.43
2018-12-22T17:33:28.020Z,3.43
2018-12-22T17:35:55.587Z,2.33
2018-12-22T17:38:24.484Z,2.37
2018-12-22T17:40:52.457Z,3.47
2018-12-22T17:43:20.066Z,2.77
2018-12-22T17:45:47.621Z,3.97
2018-12-22T17:48:15.298Z,3.17
2018-12-22T17:50:42.865Z,2.40
2018-12-22T17:53:10.431Z,3.00
2018-12-22T17:55:38.398Z,2.40
2018-12-22T17:58:06.044Z,2.73
2018-12-22T18:00:33.774Z,2.50
2018-12-22T18:03:01.714Z,2.87
2018-12-22T18:05:29.684Z,2.43
2018-12-22T18:07:57.267Z,2.27
2018-12-22T18:10:25.009Z,2.87
2018-12-22T18:12:52.977Z,2.50
2018-12-22T18:15:22.018Z,2.30
2018-12-22T18:17:49.994Z,2.40
2018-12-22T18:20:17.590Z,2.30
2018-12-22T18:22:45.187Z,2.77
2018-12-22T18:25:14.174Z,2.40
2018-12-22T18:27:42.048Z,2.80
2018-12-22T18:30:10.886Z,3.10
2018-12-22T18:32:38.437Z,2.40
2018-12-22T18:35:07.427Z,2.73
2018-12-22T18:37:35.458Z,2.30
2018-12-22T18:40:04.605Z,2.53
2018-12-22T18:42:32.647Z,2.47
2018-12-22T18:45:00.283Z,2.30
2018-12-22T18:47:28.249Z,2.17
2018-12-22T18:49:56.141Z,2.30
2018-12-22T18:52:23.684Z,2.50
2018-12-22T18:54:51.358Z,2.70
2018-12-22T18:57:19.027Z,2.40
2018-12-22T18:59:46.636Z,2.53
2018-12-22T19:02:14.186Z,2.57
2018-12-22T19:04:42.146Z,2.30
2018-12-22T19:07:09.762Z,2.03
2018-12-22T19:09:38.897Z,3.27
2018-12-22T19:12:14.495Z,2.47
2018-12-22T19:14:51.119Z,3.27
2018-12-22T19:17:18.839Z,1.90
2018-12-22T19:19:46.506Z,2.67
2018-12-22T19:22:14.080Z,1.73
2018-12-22T19:24:41.998Z,2.70
2018-12-22T19:27:09.845Z,2.10
2018-12-22T19:29:37.459Z,2.17
2018-12-22T19:32:05.230Z,2.60
2018-12-22T19:34:33.172Z,2.50
2018-12-22T19:37:00.754Z,2.33
2018-12-22T19:39:28.314Z,2.30
2018-12-22T19:41:56.278Z,2.33
2018-12-22T19:44:24.188Z,2.27
2018-12-22T19:46:51.786Z,2.10
2018-12-22T19:49:19.371Z,2.53
2018-12-22T19:51:47.258Z,3.93
2018-12-22T19:54:14.918Z,2.67
2018-12-22T19:56:42.481Z,2.07
2018-12-22T19:59:10.413Z,1.90
2018-12-22T20:01:38.515Z,2.73
2018-12-22T20:04:07.316Z,3.73
2018-12-22T20:06:34.925Z,2.53
2018-12-22T20:09:03.776Z,2.27
2018-12-22T20:11:31.822Z,2.30
2018-12-22T20:13:59.554Z,2.17
2018-12-22T20:16:27.198Z,2.47
2018-12-22T20:18:55.126Z,3.10
2018-12-22T20:21:23.139Z,2.30
2018-12-22T20:23:50.718Z,2.50
2018-12-22T20:26:18.302Z,2.50
2018-12-22T20:28:45.949Z,2.33
2018-12-22T20:31:13.551Z,2.50
2018-12-22T20:33:41.112Z,2.30
2018-12-22T20:36:08.902Z,2.30
2018-12-22T20:38:37.042Z,2.43
2018-12-22T20:41:04.556Z,2.67
2018-12-22T20:43:32.102Z,3.57
2018-12-22T20:46:00.184Z,2.23
2018-12-22T20:48:27.800Z,2.73
2018-12-22T20:50:55.362Z,2.43
2018-12-22T20:53:23.290Z,2.50
2018-12-22T20:55:51.195Z,2.77
2018-12-22T20:58:18.756Z,3.13
2018-12-22T21:00:46.657Z,3.10
2018-12-22T21:03:14.598Z,2.53
2018-12-22T21:05:45.154Z,3.17
2018-12-22T21:08:13.278Z,2.73
2018-12-22T21:10:40.821Z,2.13
2018-12-22T21:13:08.462Z,2.27
2018-12-22T21:15:37.869Z,4.20
2018-12-22T21:18:06.019Z,2.60
2018-12-22T21:20:33.771Z,3.47
2018-12-22T21:23:01.349Z,2.87
2018-12-22T21:25:28.941Z,2.57
2018-12-22T21:27:56.767Z,2.33
2018-12-22T21:30:24.321Z,2.67
2018-12-22T21:32:51.901Z,2.10
2018-12-22T21:35:19.749Z,2.30
2018-12-22T21:37:47.298Z,3.27
2018-12-22T21:40:14.963Z,2.60
2018-12-22T21:42:43.838Z,2.40
2018-12-22T21:45:11.765Z,2.50
2018-12-22T21:47:39.342Z,2.50
2018-12-22T21:50:06.901Z,2.87
2018-12-22T21:52:34.619Z,2.50
2018-12-22T21:55:02.181Z,2.90
2018-12-22T21:57:29.782Z,2.53
2018-12-22T21:59:57.677Z,2.20
2018-12-22T22:02:25.230Z,2.67
2018-12-22T22:04:53.094Z,2.50
2018-12-22T22:07:20.757Z,2.30
2018-12-22T22:09:48.662Z,2.40
2018-12-22T22:12:16.238Z,3.57
2018-12-22T22:14:43.962Z,2.20
2018-12-22T22:17:11.561Z,2.93
2018-12-22T22:19:39.153Z,2.27
2018-12-22T22:22:08.781Z,2.50
2018-12-22T22:24:36.627Z,2.73
2018-12-22T22:27:04.207Z,2.80
2018-12-22T22:29:31.882Z,2.50
2018-12-22T22:32:01.038Z,2.60
2018-12-22T22:34:29.025Z,2.70
2018-12-22T22:36:56.568Z,3.27
2018-12-22T22:39:24.095Z,2.20
2018-12-22T22:41:51.755Z,2.47
2018-12-22T22:44:19.329Z,2.10
2018-12-22T22:46:47.142Z,2.50
2018-12-22T22:49:15.125Z,3.20
2018-12-22T22:51:43.092Z,2.77
2018-12-22T22:54:10.710Z,2.80
2018-12-22T22:56:38.835Z,2.10
2018-12-22T22:59:06.809Z,2.43
2018-12-22T23:01:34.371Z,3.13
2018-12-22T23:04:02.008Z,2.60
2018-12-22T23:06:29.921Z,2.67
2018-12-22T23:08:58.205Z,2.30
2018-12-22T23:11:25.781Z,2.83
2018-12-22T23:13:53.718Z,2.80
2018-12-22T23:16:21.502Z,2.90
2018-12-22T23:18:49.218Z,2.63
2018-12-22T23:21:16.794Z,2.40
2018-12-22T23:23:44.442Z,2.70
2018-12-22T23:26:12.117Z,2.50
2018-12-22T23:28:39.667Z,3.33
2018-12-22T23:31:07.411Z,2.63
2018-12-22T23:33:34.926Z,2.50
2018-12-22T23:36:02.817Z,2.53
2018-12-22T23:38:30.741Z,3.33
2018-12-22T23:40:58.306Z,2.23
2018-12-22T23:43:25.949Z,2.30
2018-12-22T23:45:53.806Z,2.70
2018-12-22T23:48:21.361Z,2.10
2018-12-22T23:50:48.913Z,2.13
2018-12-22T23:53:16.785Z,2.40
2018-12-22T23:55:44.309Z,2.17
2018-12-22T23:58:11.923Z,2.60
